Skip Navigation Links Skip Navigation Links

Current Weather

Harrisburg-Raleigh, Harrisburg, Ill.

For information only: do not use for flight planning or navigation.
Latest weather
Observation time Thursday, January 27, 2022 10:15 PM CST
Local time Thursday, January 27, 2022 10:43 PM CST
Flight conditions Visual Meteorological Conditions
Winds
Wind speed calm
Visibility 10 mi.
Sky condition
Ceiling 4,300 ft. overcast
Cloud layer overcast 4,300 ft.
Temperature 32°F
Dewpoint 15°F
Altimeter 30.26 in.Hg
Derived measurements
Relative humidity 50%
Wind chill 32°F
Density altitude -1775 ft.
Remarks
Fully automated report.
Automated weather observing station with precipitation discriminator.
METAR KHSB 280415Z AUTO 00000KT 10SM OVC043 00/M09 A3026 RMK AO2 T00001092

Settings

Location code

InnerDrive.Weather 4.0.6770.0 Release CLR 4.0.30319.42000
Copyright ©2018 Inner Drive Technology. All rights reserved. Portions Copyright ©1986-2018 David Braverman.

Find weather

Site navigation


Skip Navigation Links

Place info

Page info

PayPal - The safer, easier way to pay online!

Return home.

Copyright ©2022 Inner Drive Technology. Purveyors of fine, hand-crafted computer software. Page printed 2022-01-28T04:43:52 UTC.